Time;durP1;ratioP1;P1;durP2;ratioP2;P2;SDS_P1;SDS_P2;PMS_P1;PMS_P2;Temp;Humidity;BMP_temperature;BMP_pressure;BME280_temperature;BME280_humidity;BME280_pressure;Samples;Min_cycle;Max_cycle;Signal;HPM_P1;HPM_P2
2023/05/22 00:01:59;;;;;;;19.30;14.70;;;19.50;71.50;;;;;;5100174;27;20576;-63
2023/05/22 00:04:39;;;;;;;19.03;15.40;;;19.40;71.50;;;;;;5106616;28;20440;-64
2023/05/22 00:07:13;;;;;;;18.63;14.27;;;19.40;71.50;;;;;;5106292;28;20450;-63
2023/05/22 00:09:47;;;;;;;17.90;14.47;;;19.30;71.50;;;;;;5103317;28;20467;-63
2023/05/22 00:12:21;;;;;;;19.60;15.17;;;19.30;71.50;;;;;;5105733;28;20446;-63
2023/05/22 00:15:12;;;;;;;23.17;15.50;;;19.30;71.50;;;;;;5102862;28;20754;-63
2023/05/22 00:17:44;;;;;;;18.80;13.80;;;19.30;71.50;;;;;;5102258;28;20479;-63
2023/05/22 00:20:28;;;;;;;19.20;15.23;;;19.20;71.50;;;;;;5102863;28;20459;-63
2023/05/22 00:23:08;;;;;;;19.20;15.47;;;19.20;71.50;;;;;;5101769;28;20455;-63
2023/05/22 00:25:52;;;;;;;19.00;13.73;;;19.20;71.60;;;;;;5098029;28;20487;-63
2023/05/22 00:28:32;;;;;;;18.17;14.20;;;19.20;71.60;;;;;;5111709;27;20491;-63
2023/05/22 00:31:20;;;;;;;16.87;14.13;;;;;;;;;;5103357;28;20483;-63
2023/05/22 00:33:54;;;;;;;18.00;14.60;;;19.10;71.60;;;;;;5102444;28;20529;-63
2023/05/22 00:36:40;;;;;;;21.50;17.23;;;19.00;71.70;;;;;;5107370;28;20495;-62
2023/05/22 00:39:13;;;;;;;17.40;14.20;;;19.00;71.80;;;;;;5107142;27;20500;-63
2023/05/22 00:41:45;;;;;;;20.30;15.17;;;18.90;71.80;;;;;;5098711;28;20475;-63
2023/05/22 00:44:18;;;;;;;19.53;15.40;;;18.90;71.90;;;;;;5102800;28;20453;-64
2023/05/22 00:46:52;;;;;;;20.40;14.97;;;18.90;71.90;;;;;;5097708;28;20460;-63
2023/05/22 00:49:30;;;;;;;21.17;15.10;;;18.90;71.90;;;;;;5099043;28;20465;-64
2023/05/22 00:52:07;;;;;;;20.87;15.80;;;18.80;71.90;;;;;;5100200;28;21061;-63
2023/05/22 00:54:47;;;;;;;22.90;15.07;;;18.80;71.90;;;;;;5095688;28;20895;-63
2023/05/22 00:57:22;;;;;;;19.10;15.50;;;18.80;72.00;;;;;;5099737;28;20503;-63
2023/05/22 00:59:54;;;;;;;22.50;15.80;;;18.80;72.20;;;;;;5095415;28;20635;-62
2023/05/22 01:02:35;;;;;;;18.70;15.07;;;18.80;72.30;;;;;;5097596;28;20513;-63
2023/05/22 01:05:16;;;;;;;20.53;14.40;;;18.80;72.40;;;;;;5108360;28;20445;-63
2023/05/22 01:07:49;;;;;;;19.70;14.80;;;18.80;72.30;;;;;;5110675;28;20860;-63
2023/05/22 01:10:21;;;;;;;19.97;15.27;;;18.90;72.30;;;;;;5126677;27;21034;-64
2023/05/22 01:13:15;;;;;;;17.80;15.10;;;18.90;72.30;;;;;;5108947;28;20479;-63
2023/05/22 01:15:55;;;;;;;19.73;13.00;;;18.90;72.40;;;;;;5108761;28;20450;-63
2023/05/22 01:18:36;;;;;;;20.20;14.07;;;18.90;72.30;;;;;;5109361;28;20484;-63
2023/05/22 01:21:13;;;;;;;22.20;15.37;;;18.90;72.30;;;;;;5111276;28;20449;-62
2023/05/22 01:24:28;;;;;;;19.60;14.30;;;18.90;72.30;;;;;;5123250;27;20664;-62
2023/05/22 01:27:34;;;;;;;21.83;15.33;;;18.80;72.10;;;;;;5105932;28;20961;-62
2023/05/22 01:30:39;;;;;;;26.83;14.90;;;18.80;72.10;;;;;;5095681;28;20458;-63
2023/05/22 01:33:17;;;;;;;21.43;14.00;;;18.70;72.10;;;;;;5104249;28;20465;-63
2023/05/22 01:35:53;;;;;;;20.03;15.37;;;18.70;72.10;;;;;;5108588;28;20453;-63
2023/05/22 01:38:29;;;;;;;20.60;15.50;;;18.70;72.10;;;;;;5106168;28;20589;-63
2023/05/22 01:43:54;;;;;;;21.83;14.50;;;18.60;72.20;;;;;;5106939;28;20871;-63
2023/05/22 01:46:35;;;;;;;20.93;14.80;;;18.60;72.20;;;;;;5117160;27;20462;-63
2023/05/22 01:49:15;;;;;;;21.23;15.03;;;18.60;72.20;;;;;;5106891;28;20547;-63
2023/05/22 01:51:56;;;;;;;20.77;14.87;;;18.60;72.30;;;;;;5109193;28;20528;-63
2023/05/22 01:54:41;;;;;;;19.87;15.30;;;18.60;72.20;;;;;;5109574;28;20448;-64
2023/05/22 01:57:20;;;;;;;20.67;15.57;;;18.50;72.20;;;;;;5104203;28;20469;-63
2023/05/22 01:59:57;;;;;;;20.50;16.07;;;18.50;72.10;;;;;;5092642;28;20542;-63
2023/05/22 02:02:31;;;;;;;19.67;14.80;;;18.40;72.20;;;;;;5103667;28;20480;-63
2023/05/22 02:05:13;;;;;;;19.60;14.97;;;18.40;72.30;;;;;;5109036;28;20466;-63
2023/05/22 02:07:49;;;;;;;18.73;14.30;;;18.40;72.30;;;;;;5105403;28;20460;-63
2023/05/22 02:10:21;;;;;;;19.00;14.80;;;18.30;72.40;;;;;;5105726;28;20477;-63
2023/05/22 02:12:53;;;;;;;22.07;15.10;;;18.30;72.50;;;;;;5104692;27;20472;-63
2023/05/22 02:15:25;;;;;;;22.90;16.77;;;18.20;72.50;;;;;;5110308;27;20532;-63
2023/05/22 02:18:00;;;;;;;24.67;15.60;;;18.20;72.60;;;;;;5108598;28;20463;-63
2023/05/22 02:20:34;;;;;;;19.17;14.27;;;18.20;72.70;;;;;;5109362;28;20487;-63
2023/05/22 02:23:09;;;;;;;20.80;15.40;;;18.30;72.70;;;;;;5106075;28;20454;-63
2023/05/22 02:25:40;;;;;;;20.33;14.50;;;18.20;72.60;;;;;;5122891;27;20555;-62
2023/05/22 02:30:59;;;;;;;19.00;14.70;;;18.20;72.50;;;;;;5109324;28;20460;-62
2023/05/22 02:33:38;;;;;;;19.27;14.93;;;18.10;72.50;;;;;;5107291;28;20494;-63
2023/05/22 02:36:26;;;;;;;18.90;15.27;;;18.00;72.70;;;;;;5109687;28;20452;-64
2023/05/22 02:39:01;;;;;;;17.63;14.70;;;18.00;72.80;;;;;;5105762;28;20824;-63
2023/05/22 02:41:34;;;;;;;18.90;14.50;;;18.00;72.90;;;;;;5097180;28;20546;-63
2023/05/22 02:44:06;;;;;;;22.30;15.00;;;18.00;72.90;;;;;;5107499;27;20810;-62
2023/05/22 02:46:40;;;;;;;18.40;14.00;;;18.10;72.90;;;;;;5106498;28;20464;-63
2023/05/22 02:49:11;;;;;;;21.67;15.47;;;18.10;72.80;;;;;;5105672;28;20485;-63
2023/05/22 02:51:58;;;;;;;21.80;14.80;;;18.00;72.60;;;;;;5109778;27;20465;-63
2023/05/22 02:54:31;;;;;;;18.30;13.90;;;18.00;72.50;;;;;;5108383;28;20462;-63
2023/05/22 02:57:03;;;;;;;18.10;14.43;;;18.00;72.50;;;;;;5106047;28;20451;-63
2023/05/22 02:59:35;;;;;;;20.03;15.83;;;17.90;72.50;;;;;;5105340;28;20885;-62
2023/05/22 03:02:11;;;;;;;21.23;15.87;;;17.90;72.50;;;;;;5100307;27;20579;-63
2023/05/22 03:04:42;;;;;;;21.77;15.93;;;17.80;72.60;;;;;;5106579;28;20824;-63
2023/05/22 03:07:29;;;;;;;18.37;14.17;;;17.80;72.60;;;;;;5107417;28;20463;-63
2023/05/22 03:12:47;;;;;;;22.57;15.90;;;17.80;72.60;;;;;;5104352;28;20468;-63
2023/05/22 03:15:20;;;;;;;20.80;14.93;;;17.80;72.60;;;;;;5104658;28;20530;-63
2023/05/22 03:17:55;;;;;;;22.00;15.20;;;17.80;72.60;;;;;;5107907;28;20482;-63
2023/05/22 03:20:26;;;;;;;20.83;15.17;;;17.70;72.60;;;;;;5108182;27;21052;-63
2023/05/22 03:23:14;;;;;;;22.27;14.70;;;17.70;72.70;;;;;;5105950;28;20467;-63
2023/05/22 03:25:55;;;;;;;21.63;14.67;;;17.70;72.70;;;;;;5106241;28;21186;-62
2023/05/22 03:28:34;;;;;;;19.97;14.40;;;17.70;72.70;;;;;;5104451;28;20449;-63
2023/05/22 03:31:09;;;;;;;21.93;14.90;;;17.70;72.80;;;;;;5104689;28;20471;-63
2023/05/22 03:33:59;;;;;;;20.47;15.10;;;17.70;72.90;;;;;;5105858;28;20467;-63
2023/05/22 03:36:36;;;;;;;21.60;13.97;;;17.70;72.90;;;;;;5106509;28;20457;-63
2023/05/22 03:39:15;;;;;;;24.20;16.10;;;17.70;72.90;;;;;;5112468;27;21087;-63
2023/05/22 03:41:56;;;;;;;19.70;14.00;;;17.70;72.80;;;;;;5105464;28;20452;-63
2023/05/22 03:44:28;;;;;;;21.37;14.97;;;17.60;72.80;;;;;;5105191;28;20471;-63
2023/05/22 03:46:58;;;;;;;18.43;15.07;;;17.60;72.80;;;;;;5111768;27;20448;-63
2023/05/22 03:49:32;;;;;;;20.57;15.20;;;17.60;72.90;;;;;;5104567;28;20454;-63
2023/05/22 03:52:10;;;;;;;18.20;14.30;;;17.50;72.90;;;;;;5103554;28;20930;-62
2023/05/22 03:54:45;;;;;;;22.57;15.90;;;17.50;72.90;;;;;;5106696;28;20794;-63
2023/05/22 03:57:18;;;;;;;19.53;15.13;;;17.50;72.90;;;;;;5102317;28;21131;-63
2023/05/22 03:59:50;;;;;;;20.43;14.60;;;17.50;73.00;;;;;;5105401;28;20488;-63
2023/05/22 04:02:20;;;;;;;21.47;14.97;;;17.50;73.00;;;;;;5104986;28;20482;-63
2023/05/22 04:04:55;;;;;;;20.97;14.70;;;17.50;73.20;;;;;;5107702;28;20456;-63
2023/05/22 04:07:29;;;;;;;20.70;15.47;;;17.60;73.30;;;;;;5106923;28;20494;-63
2023/05/22 04:10:14;;;;;;;20.07;14.70;;;17.60;73.30;;;;;;5093315;28;20462;-63
2023/05/22 04:12:51;;;;;;;17.87;14.80;;;17.70;73.20;;;;;;5105948;28;20579;-63
2023/05/22 04:18:16;;;;;;;18.20;14.30;;;17.70;73.00;;;;;;5122695;27;20455;-63
2023/05/22 04:20:57;;;;;;;20.80;14.17;;;17.80;72.90;;;;;;5105910;28;20877;-62
2023/05/22 04:23:26;;;;;;;18.13;13.70;;;17.80;72.90;;;;;;5106578;28;20469;-63
2023/05/22 04:26:12;;;;;;;17.87;14.03;;;17.80;73.00;;;;;;5101291;28;20456;-62
2023/05/22 04:28:48;;;;;;;19.90;13.93;;;17.80;73.00;;;;;;5105000;28;20525;-63
2023/05/22 04:31:21;;;;;;;20.43;14.73;;;17.80;73.00;;;;;;5103498;28;20587;-63
2023/05/22 04:33:54;;;;;;;19.80;14.50;;;17.90;73.00;;;;;;5115905;27;20518;-63
2023/05/22 04:36:39;;;;;;;18.83;14.90;;;17.90;73.00;;;;;;5105638;28;20472;-63
2023/05/22 04:39:13;;;;;;;18.67;15.10;;;18.00;73.00;;;;;;5103472;28;20558;-63
2023/05/22 04:41:50;;;;;;;18.80;15.50;;;18.00;73.10;;;;;;5104920;28;20460;-63
2023/05/22 04:44:26;;;;;;;24.00;15.93;;;18.20;73.10;;;;;;5103353;28;20471;-63
2023/05/22 04:47:10;;;;;;;18.73;15.10;;;18.30;73.10;;;;;;5105926;28;20452;-63
2023/05/22 04:49:55;;;;;;;24.37;14.17;;;18.40;73.10;;;;;;5085114;28;20460;-62
2023/05/22 04:52:26;;;;;;;27.90;15.13;;;18.50;73.00;;;;;;5084118;28;21038;-63
2023/05/22 04:54:57;;;;;;;21.20;15.80;;;18.60;73.00;;;;;;5085717;28;20470;-62
2023/05/22 04:57:35;;;;;;;23.43;15.90;;;18.80;73.00;;;;;;5087803;28;20462;-62
2023/05/22 05:00:11;;;;;;;20.27;16.00;;;18.90;73.00;;;;;;5079341;28;20476;-63
2023/05/22 05:02:52;;;;;;;19.83;16.30;;;19.10;72.90;;;;;;5078692;28;20471;-63
2023/05/22 05:05:25;;;;;;;23.40;17.23;;;19.10;72.80;;;;;;5086796;28;20764;-63
2023/05/22 05:07:59;;;;;;;24.83;16.80;;;19.20;72.90;;;;;;5085728;28;20466;-63
2023/05/22 05:10:32;;;;;;;24.43;16.93;;;19.20;73.00;;;;;;5090947;28;20480;-63
2023/05/22 05:13:12;;;;;;;25.17;18.23;;;19.30;73.20;;;;;;5086111;28;20478;-62
2023/05/22 05:15:44;;;;;;;21.00;16.03;;;19.40;73.40;;;;;;5101010;28;20515;-63
2023/05/22 05:18:21;;;;;;;23.63;16.70;;;19.60;73.60;;;;;;5100998;28;20465;-63
2023/05/22 05:20:55;;;;;;;21.20;16.50;;;19.80;73.80;;;;;;5086684;28;21124;-62
2023/05/22 05:23:29;;;;;;;18.70;14.97;;;20.20;74.10;;;;;;5083979;28;20474;-62
2023/05/22 05:26:01;;;;;;;20.50;15.13;;;20.60;74.00;;;;;;5083303;28;20556;-63
2023/05/22 05:28:40;;;;;;;24.50;15.63;;;21.20;73.10;;;;;;5085390;28;20456;-63
2023/05/22 05:31:14;;;;;;;19.87;15.37;;;22.00;71.70;;;;;;5082339;28;20483;-63
2023/05/22 05:33:46;;;;;;;20.20;15.00;;;22.60;70.60;;;;;;5091394;28;20458;-60
2023/05/22 05:36:37;;;;;;;20.20;15.00;;;23.10;69.80;;;;;;5083890;28;20448;-61
2023/05/22 05:39:13;;;;;;;22.03;14.17;;;23.60;68.90;;;;;;5085623;28;20461;-62
2023/05/22 05:41:45;;;;;;;17.43;13.17;;;24.00;68.30;;;;;;5082952;28;20549;-62
2023/05/22 05:44:26;;;;;;;19.83;13.63;;;24.30;68.00;;;;;;5083782;28;20460;-61
2023/05/22 05:47:01;;;;;;;17.33;14.20;;;24.60;67.40;;;;;;5099935;28;20464;-61
2023/05/22 05:49:32;;;;;;;15.30;12.60;;;25.00;67.00;;;;;;5085280;28;20927;-61
2023/05/22 05:52:07;;;;;;;16.90;13.90;;;25.30;66.20;;;;;;5084826;28;20461;-61
2023/05/22 05:54:52;;;;;;;16.00;13.93;;;25.60;65.60;;;;;;5089316;28;20463;-61
2023/05/22 05:57:27;;;;;;;18.53;12.37;;;26.10;65.10;;;;;;5085973;28;20464;-60
2023/05/22 06:00:08;;;;;;;24.90;12.70;;;26.60;64.20;;;;;;5085658;28;21003;-61
2023/05/22 06:02:51;;;;;;;19.77;12.30;;;27.10;63.20;;;;;;5085831;28;20553;-61
2023/05/22 06:05:40;;;;;;;21.50;13.63;;;27.50;62.00;;;;;;5086889;28;20534;-62
2023/05/22 06:08:27;;;;;;;16.80;12.40;;;27.80;61.10;;;;;;5088873;28;20445;-62
2023/05/22 06:11:03;;;;;;;17.17;11.87;;;28.00;60.40;;;;;;5091282;28;20448;-61
2023/05/22 06:13:37;;;;;;;19.20;13.20;;;28.00;59.10;;;;;;5088844;28;20551;-62
2023/05/22 06:16:11;;;;;;;13.87;11.60;;;27.60;59.10;;;;;;5079633;28;20452;-62
2023/05/22 06:18:53;;;;;;;21.23;14.20;;;27.00;59.00;;;;;;5084491;28;20576;-62
2023/05/22 06:21:24;;;;;;;17.17;12.67;;;26.40;59.30;;;;;;5103827;28;21000;-61
2023/05/22 06:24:05;;;;;;;15.93;13.17;;;25.60;60.00;;;;;;5104789;28;20453;-62
2023/05/22 06:26:46;;;;;;;17.97;12.90;;;24.90;60.90;;;;;;5088698;28;20461;-61
2023/05/22 06:29:16;;;;;;;18.57;13.07;;;24.30;61.60;;;;;;5086020;28;20456;-61
2023/05/22 06:32:01;;;;;;;15.10;11.70;;;23.80;62.20;;;;;;5087317;28;20490;-61
2023/05/22 06:34:32;;;;;;;21.93;13.00;;;23.40;62.50;;;;;;5086296;28;20857;-62
2023/05/22 06:37:12;;;;;;;17.50;12.40;;;23.10;63.00;;;;;;5087781;28;20456;-62
2023/05/22 06:39:54;;;;;;;15.67;12.07;;;22.80;63.40;;;;;;5087391;28;20841;-61
2023/05/22 06:42:34;;;;;;;16.70;12.00;;;22.60;63.70;;;;;;5088474;28;20463;-62
2023/05/22 06:45:36;;;;;;;19.30;11.80;;;22.40;64.00;;;;;;5079862;28;20540;-61
2023/05/22 06:48:34;;;;;;;18.10;12.67;;;22.30;64.40;;;;;;5090272;28;20777;-61
2023/05/22 06:51:11;;;;;;;18.60;13.53;;;22.20;64.70;;;;;;5088076;28;20978;-61
2023/05/22 06:53:53;;;;;;;18.17;13.27;;;22.20;64.90;;;;;;5089255;28;20457;-62
2023/05/22 06:56:30;;;;;;;16.27;11.30;;;22.20;65.10;;;;;;5086553;28;20453;-62
2023/05/22 06:59:19;;;;;;;16.77;12.70;;;22.20;65.20;;;;;;5089217;28;20445;-61
2023/05/22 07:01:52;;;;;;;15.80;11.80;;;22.20;65.30;;;;;;5086077;28;21021;-61
2023/05/22 07:04:39;;;;;;;15.97;12.37;;;22.20;65.30;;;;;;5086899;28;20545;-61
2023/05/22 07:07:23;;;;;;;16.37;12.73;;;22.20;65.30;;;;;;5086382;28;20456;-61
2023/05/22 07:09:54;;;;;;;14.63;11.53;;;22.20;65.30;;;;;;5088540;28;20513;-61
2023/05/22 07:12:33;;;;;;;14.07;11.53;;;22.20;65.30;;;;;;5083343;28;20449;-61
2023/05/22 07:15:17;;;;;;;15.57;11.97;;;22.20;65.30;;;;;;5087301;28;20475;-61
2023/05/22 07:17:54;;;;;;;17.40;11.63;;;22.20;65.40;;;;;;5086499;28;20460;-61
2023/05/22 07:20:30;;;;;;;17.60;13.20;;;22.30;65.40;;;;;;5084114;28;20555;-61
2023/05/22 07:23:22;;;;;;;15.70;12.57;;;22.30;65.60;;;;;;5087982;28;20461;-62
2023/05/22 07:26:05;;;;;;;14.57;10.93;;;22.30;65.50;;;;;;5083533;28;21327;-62
2023/05/22 07:28:50;;;;;;;16.03;11.17;;;22.40;65.60;;;;;;5088658;28;20464;-61
2023/05/22 07:31:24;;;;;;;18.63;11.83;;;22.40;65.60;;;;;;5084676;28;20508;-62
2023/05/22 07:34:05;;;;;;;18.27;13.00;;;22.50;65.60;;;;;;5085464;28;20858;-61
2023/05/22 07:36:42;;;;;;;17.47;12.60;;;22.60;65.70;;;;;;5094399;28;20453;-61
2023/05/22 07:39:22;;;;;;;18.80;12.40;;;22.60;65.70;;;;;;5104975;28;21302;-62
2023/05/22 07:42:03;;;;;;;18.87;11.97;;;22.60;65.60;;;;;;5085194;28;20473;-61
2023/05/22 07:44:44;;;;;;;15.23;11.20;;;22.60;65.60;;;;;;5085723;28;20552;-62
2023/05/22 07:47:17;;;;;;;16.00;10.80;;;22.70;65.60;;;;;;5084666;28;20557;-62
2023/05/22 07:50:04;;;;;;;15.20;11.47;;;22.70;65.70;;;;;;5078514;28;20537;-61
2023/05/22 07:53:03;;;;;;;22.37;12.27;;;22.90;65.50;;;;;;5085465;28;20459;-62
2023/05/22 07:55:40;;;;;;;16.83;11.60;;;22.90;65.50;;;;;;5083049;28;20787;-61
2023/05/22 07:58:12;;;;;;;17.50;12.37;;;22.90;65.60;;;;;;5087647;28;20457;-61
2023/05/22 08:00:52;;;;;;;16.03;11.87;;;23.00;65.60;;;;;;5086278;28;20510;-62
2023/05/22 08:03:21;;;;;;;15.70;12.57;;;23.20;65.50;;;;;;5085192;28;20467;-61
2023/05/22 08:05:54;;;;;;;15.93;11.20;;;23.20;65.40;;;;;;5087376;28;20781;-61
2023/05/22 08:08:39;;;;;;;16.10;12.17;;;23.30;65.20;;;;;;5085746;28;20763;-61
2023/05/22 08:11:14;;;;;;;18.23;12.03;;;23.40;65.10;;;;;;5085083;28;20455;-61
2023/05/22 08:13:48;;;;;;;14.73;11.70;;;23.40;65.00;;;;;;5085689;28;20461;-62
2023/05/22 08:16:22;;;;;;;15.50;10.77;;;23.40;64.90;;;;;;5083905;28;20459;-61
2023/05/22 08:19:02;;;;;;;16.23;11.17;;;23.40;64.80;;;;;;5086994;28;20460;-62
2023/05/22 08:21:47;;;;;;;14.40;11.07;;;23.50;64.70;;;;;;5085760;28;20759;-61
2023/05/22 08:24:30;;;;;;;15.33;11.10;;;23.50;64.60;;;;;;5085093;28;20583;-61
2023/05/22 08:27:08;;;;;;;13.00;11.00;;;23.50;64.30;;;;;;5087089;28;20461;-61
2023/05/22 08:29:41;;;;;;;14.53;11.20;;;23.50;64.30;;;;;;5083840;28;20448;-62
2023/05/22 08:32:12;;;;;;;16.37;11.57;;;23.50;64.30;;;;;;5085552;28;21264;-61
2023/05/22 08:34:41;;;;;;;16.20;11.57;;;23.60;64.30;;;;;;5086500;28;20445;-61
2023/05/22 08:37:20;;;;;;;13.27;11.20;;;23.60;64.20;;;;;;5084047;28;20460;-61
2023/05/22 08:40:12;;;;;;;15.60;12.50;;;23.70;64.00;;;;;;5085998;28;20464;-61
2023/05/22 08:42:53;;;;;;;18.20;12.40;;;23.70;63.70;;;;;;5081925;28;20700;-61
2023/05/22 08:45:32;;;;;;;15.67;11.17;;;23.70;63.70;;;;;;5087630;28;20451;-61
2023/05/22 08:48:08;;;;;;;15.30;11.40;;;23.70;63.80;;;;;;5087563;28;20452;-61
2023/05/22 08:50:51;;;;;;;14.63;11.93;;;23.70;63.70;;;;;;5085004;28;20459;-61
2023/05/22 08:53:30;;;;;;;15.80;12.13;;;23.70;63.80;;;;;;5085079;28;20449;-61
2023/05/22 08:56:19;;;;;;;16.70;11.67;;;23.70;63.80;;;;;;5083504;28;20948;-61
2023/05/22 08:58:50;;;;;;;15.03;11.40;;;23.70;63.70;;;;;;5087639;28;20464;-61
2023/05/22 09:01:25;;;;;;;14.60;10.60;;;23.80;63.70;;;;;;5085078;28;20819;-61
2023/05/22 09:03:59;;;;;;;21.43;19.23;;;23.80;63.70;;;;;;5083003;28;20842;-61
2023/05/22 09:06:38;;;;;;;18.40;11.67;;;23.90;63.60;;;;;;5085357;28;20471;-62
2023/05/22 09:09:13;;;;;;;17.17;12.40;;;23.80;63.60;;;;;;5086246;28;20455;-61
2023/05/22 09:11:58;;;;;;;15.50;11.83;;;23.80;63.50;;;;;;5101950;28;20458;-61
2023/05/22 09:14:35;;;;;;;20.23;12.80;;;23.90;63.40;;;;;;5084371;28;20463;-61
2023/05/22 09:17:10;;;;;;;16.23;11.60;;;23.90;63.40;;;;;;5085574;28;20463;-62
2023/05/22 09:19:52;;;;;;;14.77;11.87;;;23.90;63.40;;;;;;5086163;28;21040;-61
2023/05/22 09:22:25;;;;;;;13.87;11.00;;;23.90;63.40;;;;;;5085033;28;20797;-61
2023/05/22 09:25:00;;;;;;;14.47;11.63;;;23.90;63.60;;;;;;5085042;28;20464;-61
2023/05/22 09:27:49;;;;;;;19.73;11.87;;;23.90;63.50;;;;;;5089451;28;20995;-61
2023/05/22 09:30:27;;;;;;;13.90;10.63;;;24.00;63.40;;;;;;5088989;28;20536;-61
2023/05/22 09:33:00;;;;;;;12.97;10.90;;;24.00;63.50;;;;;;5090685;28;20444;-61
2023/05/22 09:35:40;;;;;;;14.13;11.43;;;24.00;63.40;;;;;;5088918;28;20489;-61
2023/05/22 09:38:16;;;;;;;14.03;10.80;;;24.00;63.40;;;;;;5090709;28;20460;-61
2023/05/22 09:40:56;;;;;;;14.67;10.70;;;24.00;63.40;;;;;;5090086;28;20903;-61
2023/05/22 09:43:31;;;;;;;13.60;10.50;;;24.10;63.20;;;;;;5089907;28;20481;-61
2023/05/22 09:46:06;;;;;;;16.30;11.30;;;24.20;62.90;;;;;;5088293;28;20915;-61
2023/05/22 09:48:39;;;;;;;14.27;12.10;;;24.20;62.90;;;;;;5089498;28;20505;-61
2023/05/22 09:51:10;;;;;;;16.37;11.73;;;24.20;63.10;;;;;;5089477;28;20468;-61
2023/05/22 09:53:43;;;;;;;16.53;12.30;;;24.20;63.20;;;;;;5104082;28;20457;-61
2023/05/22 09:56:28;;;;;;;14.03;11.50;;;24.20;63.50;;;;;;5087649;28;20822;-61
2023/05/22 09:59:28;;;;;;;17.03;12.63;;;24.20;63.60;;;;;;5090245;28;20456;-61
2023/05/22 10:02:09;;;;;;;20.43;13.60;;;24.30;64.00;;;;;;5084621;28;20541;-61
2023/05/22 10:04:41;;;;;;;22.83;12.80;;;24.30;63.90;;;;;;5105589;28;20456;-61
2023/05/22 10:07:15;;;;;;;19.17;13.30;;;24.30;64.00;;;;;;5091156;28;20452;-61
2023/05/22 10:09:56;;;;;;;17.50;10.20;;;24.30;63.90;;;;;;5088013;28;20453;-62
2023/05/22 10:12:30;;;;;;;14.00;11.07;;;24.20;63.80;;;;;;5088749;28;20448;-61
2023/05/22 10:15:08;;;;;;;16.37;12.80;;;24.30;63.90;;;;;;5090805;28;20522;-61
2023/05/22 10:17:42;;;;;;;15.27;12.10;;;24.30;64.10;;;;;;5089210;28;21291;-61
2023/05/22 10:20:20;;;;;;;17.97;12.57;;;24.30;64.10;;;;;;5086994;28;20561;-61
2023/05/22 10:22:54;;;;;;;15.60;12.70;;;24.30;64.10;;;;;;5088915;28;20541;-61
2023/05/22 10:25:26;;;;;;;17.30;13.03;;;24.30;64.50;;;;;;5087887;28;20921;-61
2023/05/22 10:27:58;;;;;;;15.40;12.37;;;24.30;64.50;;;;;;5084959;28;20909;-61
2023/05/22 10:30:36;;;;;;;16.93;13.07;;;24.40;64.30;;;;;;5088621;28;20559;-61
2023/05/22 10:33:37;;;;;;;18.43;14.03;;;24.30;64.70;;;;;;5087283;28;20599;-61
2023/05/22 10:36:28;;;;;;;17.53;12.60;;;24.30;64.80;;;;;;5089311;28;20467;-61
2023/05/22 10:39:39;;;;;;;18.70;13.23;;;24.30;64.80;;;;;;5088754;28;20464;-62
2023/05/22 10:42:16;;;;;;;20.13;12.77;;;24.30;64.50;;;;;;5105003;28;20471;-61
2023/05/22 10:44:48;;;;;;;16.20;13.03;;;24.30;64.60;;;;;;5088627;28;21100;-61
2023/05/22 10:47:37;;;;;;;21.80;14.40;;;24.30;64.50;;;;;;5086982;28;20553;-61
2023/05/22 10:50:09;;;;;;;15.20;12.97;;;24.30;64.70;;;;;;5088414;28;21280;-61
2023/05/22 10:52:51;;;;;;;17.33;12.90;;;24.30;64.80;;;;;;5082007;28;20491;-61
2023/05/22 10:55:26;;;;;;;22.30;12.80;;;24.30;65.00;;;;;;5088132;28;20487;-61
2023/05/22 10:57:59;;;;;;;14.47;12.27;;;24.30;65.20;;;;;;5087846;28;20486;-62
2023/05/22 11:00:39;;;;;;;20.23;12.93;;;24.40;65.20;;;;;;5084644;28;20689;-61
2023/05/22 11:03:15;;;;;;;16.20;13.20;;;24.40;65.40;;;;;;5086339;28;20491;-62
2023/05/22 11:05:56;;;;;;;16.83;13.80;;;24.40;65.30;;;;;;5089199;28;20452;-62
2023/05/22 11:08:49;;;;;;;16.40;12.60;;;24.40;65.40;;;;;;5088519;28;20591;-61
2023/05/22 11:11:27;;;;;;;18.83;12.30;;;24.40;65.60;;;;;;5084093;28;20526;-61
2023/05/22 11:14:05;;;;;;;17.20;11.93;;;24.40;65.60;;;;;;5090254;28;20441;-61
2023/05/22 11:16:39;;;;;;;16.20;12.50;;;24.40;65.80;;;;;;5088669;28;20456;-62
2023/05/22 11:19:22;;;;;;;13.90;11.80;;;24.50;65.60;;;;;;5088117;28;20487;-61
2023/05/22 11:22:01;;;;;;;16.43;12.40;;;24.50;66.00;;;;;;5088408;28;20456;-61
2023/05/22 11:24:36;;;;;;;17.83;13.40;;;24.60;65.80;;;;;;5085881;28;20590;-63
2023/05/22 11:27:11;;;;;;;24.80;12.63;;;24.60;66.00;;;;;;5086143;28;20463;-62
2023/05/22 11:29:45;;;;;;;14.50;12.00;;;24.70;66.10;;;;;;5089163;28;20440;-63
2023/05/22 11:32:22;;;;;;;15.40;12.53;;;24.70;66.00;;;;;;5086906;28;20461;-63
2023/05/22 11:34:56;;;;;;;18.00;13.10;;;24.80;65.70;;;;;;5086510;28;20461;-62
2023/05/22 11:37:29;;;;;;;14.13;11.63;;;24.80;65.50;;;;;;5087604;28;20457;-62
2023/05/22 11:40:05;;;;;;;24.23;12.73;;;24.80;65.60;;;;;;5089256;28;20436;-62
2023/05/22 11:42:37;;;;;;;18.37;12.13;;;24.80;65.80;;;;;;5086697;28;20455;-61
2023/05/22 11:45:13;;;;;;;13.07;11.17;;;24.80;65.90;;;;;;5087469;28;20464;-61
2023/05/22 11:47:54;;;;;;;20.57;12.60;;;24.90;65.40;;;;;;5086651;28;20484;-61
2023/05/22 11:50:42;;;;;;;18.97;10.67;;;24.90;64.90;;;;;;5088079;28;20815;-61
2023/05/22 11:53:16;;;;;;;16.20;11.63;;;24.90;64.70;;;;;;5085167;28;20533;-60
2023/05/22 11:55:52;;;;;;;15.27;11.90;;;24.90;64.80;;;;;;5086791;28;20480;-61
2023/05/22 11:58:32;;;;;;;16.00;12.77;;;24.90;64.80;;;;;;5087477;28;20449;-61
2023/05/22 12:01:13;;;;;;;23.50;11.93;;;25.00;64.70;;;;;;5086869;28;20464;-61
2023/05/22 12:03:48;;;;;;;16.63;10.77;;;25.00;64.30;;;;;;5084882;28;20477;-61
2023/05/22 12:06:21;;;;;;;15.40;11.13;;;25.10;64.20;;;;;;5083965;28;20460;-61
2023/05/22 12:08:50;;;;;;;23.10;11.30;;;25.10;64.00;;;;;;5083099;28;20518;-61
2023/05/22 12:11:22;;;;;;;14.90;11.10;;;25.20;63.60;;;;;;5084430;28;20572;-62
2023/05/22 12:14:02;;;;;;;17.40;12.03;;;25.30;63.30;;;;;;5087408;28;20452;-61
2023/05/22 12:16:39;;;;;;;15.00;11.40;;;25.40;62.80;;;;;;5083151;28;20805;-62
2023/05/22 12:19:14;;;;;;;13.73;10.57;;;25.50;62.50;;;;;;5087357;28;20484;-61
2023/05/22 12:21:56;;;;;;;16.13;11.60;;;25.50;62.20;;;;;;5086365;28;20460;-61
2023/05/22 12:24:41;;;;;;;13.20;10.13;;;25.50;62.10;;;;;;5087324;28;20476;-61
2023/05/22 12:27:10;;;;;;;15.63;10.83;;;25.50;62.10;;;;;;5088421;28;20468;-61
2023/05/22 12:29:51;;;;;;;14.43;11.33;;;25.50;61.80;;;;;;5088233;28;20457;-61
2023/05/22 12:32:29;;;;;;;16.37;11.17;;;25.60;61.70;;;;;;5084200;28;20557;-61
2023/05/22 12:35:02;;;;;;;14.70;11.07;;;25.60;61.60;;;;;;5086734;28;20464;-61
2023/05/22 12:37:50;;;;;;;15.23;11.50;;;25.60;61.50;;;;;;5088083;28;20559;-61
2023/05/22 12:40:21;;;;;;;13.40;11.10;;;25.60;61.40;;;;;;5084509;28;20460;-61
2023/05/22 12:42:57;;;;;;;13.73;11.30;;;25.70;61.40;;;;;;5085723;28;20528;-62
2023/05/22 12:45:35;;;;;;;14.83;11.63;;;25.70;61.40;;;;;;5084110;28;20492;-62
2023/05/22 12:48:07;;;;;;;16.07;11.37;;;25.70;61.30;;;;;;5085335;28;20488;-62
2023/05/22 12:50:43;;;;;;;16.77;12.37;;;25.70;61.30;;;;;;5087253;28;20484;-62
2023/05/22 12:53:20;;;;;;;14.60;11.00;;;25.70;61.20;;;;;;5086813;28;20943;-61
2023/05/22 12:56:02;;;;;;;17.47;11.40;;;25.80;61.10;;;;;;5086267;28;20893;-62
2023/05/22 12:58:38;;;;;;;19.30;12.20;;;25.80;61.00;;;;;;5082783;28;20539;-62
2023/05/22 13:01:09;;;;;;;13.97;11.03;;;25.80;61.20;;;;;;5085695;28;20472;-61
2023/05/22 13:03:45;;;;;;;17.27;10.50;;;25.80;61.20;;;;;;5085862;28;20805;-61
2023/05/22 13:06:19;;;;;;;15.50;10.53;;;25.80;61.00;;;;;;5084374;28;20472;-62
2023/05/22 13:08:58;;;;;;;15.27;10.60;;;25.90;60.70;;;;;;5085663;28;20457;-62
2023/05/22 13:11:29;;;;;;;15.53;10.67;;;26.00;60.50;;;;;;5084177;28;20486;-62
2023/05/22 13:14:08;;;;;;;13.53;9.83;;;26.00;60.40;;;;;;5104076;28;20841;-61
2023/05/22 13:16:42;;;;;;;12.90;10.47;;;26.10;60.00;;;;;;5084072;28;21163;-62
2023/05/22 13:19:21;;;;;;;15.80;10.47;;;26.20;59.70;;;;;;5085783;28;20457;-61
2023/05/22 13:21:55;;;;;;;12.23;10.03;;;26.20;59.40;;;;;;5085339;28;20521;-61
2023/05/22 13:24:33;;;;;;;16.00;9.20;;;26.20;59.20;;;;;;5086918;28;20948;-61
2023/05/22 13:27:09;;;;;;;12.13;8.97;;;26.30;58.50;;;;;;5083315;28;20543;-62
2023/05/22 13:29:49;;;;;;;13.33;9.67;;;26.40;58.40;;;;;;5087187;28;20467;-61
2023/05/22 13:32:22;;;;;;;13.43;9.80;;;26.50;58.00;;;;;;5082433;28;21194;-62
2023/05/22 13:35:02;;;;;;;13.00;10.20;;;26.60;57.70;;;;;;5085639;28;20945;-61